sensor_id;sensor_type;location;lat;lon;timestamp;P1;durP1;ratioP1;P2;durP2;ratioP2
23088;SDS011;11713;48.506;8.966;2023-02-23T00:01:43;29.77;;;20.30;;
23088;SDS011;11713;48.506;8.966;2023-02-23T00:04:09;28.37;;;18.70;;
23088;SDS011;11713;48.506;8.966;2023-02-23T00:06:36;30.40;;;21.00;;
23088;SDS011;11713;48.506;8.966;2023-02-23T00:09:03;29.00;;;20.27;;
23088;SDS011;11713;48.506;8.966;2023-02-23T00:11:47;29.90;;;19.77;;
23088;SDS011;11713;48.506;8.966;2023-02-23T00:14:13;28.00;;;19.60;;
23088;SDS011;11713;48.506;8.966;2023-02-23T00:16:39;33.43;;;20.83;;
23088;SDS011;11713;48.506;8.966;2023-02-23T00:19:09;26.13;;;19.23;;
23088;SDS011;11713;48.506;8.966;2023-02-23T00:21:38;27.03;;;20.60;;
23088;SDS011;11713;48.506;8.966;2023-02-23T00:24:06;28.10;;;19.17;;
23088;SDS011;11713;48.506;8.966;2023-02-23T00:26:35;29.47;;;20.27;;
23088;SDS011;11713;48.506;8.966;2023-02-23T00:29:05;26.60;;;19.07;;
23088;SDS011;11713;48.506;8.966;2023-02-23T00:31:32;24.87;;;17.90;;
23088;SDS011;11713;48.506;8.966;2023-02-23T00:33:59;26.33;;;18.30;;
23088;SDS011;11713;48.506;8.966;2023-02-23T00:36:28;25.90;;;17.63;;
23088;SDS011;11713;48.506;8.966;2023-02-23T00:38:57;25.80;;;16.83;;
23088;SDS011;11713;48.506;8.966;2023-02-23T00:41:25;26.23;;;18.33;;
23088;SDS011;11713;48.506;8.966;2023-02-23T00:43:55;24.17;;;17.50;;
23088;SDS011;11713;48.506;8.966;2023-02-23T00:46:23;26.33;;;18.60;;
23088;SDS011;11713;48.506;8.966;2023-02-23T00:48:51;24.17;;;17.93;;
23088;SDS011;11713;48.506;8.966;2023-02-23T00:51:19;25.03;;;17.37;;
23088;SDS011;11713;48.506;8.966;2023-02-23T00:53:46;25.13;;;17.07;;
23088;SDS011;11713;48.506;8.966;2023-02-23T00:56:13;24.00;;;17.20;;
23088;SDS011;11713;48.506;8.966;2023-02-23T00:58:40;27.87;;;18.73;;
23088;SDS011;11713;48.506;8.966;2023-02-23T01:01:07;25.97;;;19.67;;
23088;SDS011;11713;48.506;8.966;2023-02-23T01:03:35;28.47;;;19.53;;
23088;SDS011;11713;48.506;8.966;2023-02-23T01:06:03;25.97;;;19.87;;
23088;SDS011;11713;48.506;8.966;2023-02-23T01:08:31;26.67;;;19.47;;
23088;SDS011;11713;48.506;8.966;2023-02-23T01:10:58;27.90;;;19.30;;
23088;SDS011;11713;48.506;8.966;2023-02-23T01:13:30;26.43;;;20.47;;
23088;SDS011;11713;48.506;8.966;2023-02-23T01:15:57;29.80;;;20.70;;
23088;SDS011;11713;48.506;8.966;2023-02-23T01:18:24;24.90;;;18.87;;
23088;SDS011;11713;48.506;8.966;2023-02-23T01:20:50;26.43;;;18.20;;
23088;SDS011;11713;48.506;8.966;2023-02-23T01:23:15;27.00;;;18.50;;
23088;SDS011;11713;48.506;8.966;2023-02-23T01:25:44;26.80;;;19.03;;
23088;SDS011;11713;48.506;8.966;2023-02-23T01:28:10;25.50;;;18.73;;
23088;SDS011;11713;48.506;8.966;2023-02-23T01:30:37;26.83;;;19.33;;
23088;SDS011;11713;48.506;8.966;2023-02-23T01:33:05;24.83;;;18.93;;
23088;SDS011;11713;48.506;8.966;2023-02-23T01:35:31;25.70;;;19.30;;
23088;SDS011;11713;48.506;8.966;2023-02-23T01:37:57;28.50;;;19.87;;
23088;SDS011;11713;48.506;8.966;2023-02-23T01:40:24;28.43;;;19.43;;
23088;SDS011;11713;48.506;8.966;2023-02-23T01:42:58;26.90;;;19.57;;
23088;SDS011;11713;48.506;8.966;2023-02-23T01:45:36;26.63;;;20.30;;
23088;SDS011;11713;48.506;8.966;2023-02-23T01:50:54;24.80;;;19.63;;
23088;SDS011;11713;48.506;8.966;2023-02-23T01:53:25;26.90;;;19.67;;
23088;SDS011;11713;48.506;8.966;2023-02-23T01:55:58;28.67;;;21.20;;
23088;SDS011;11713;48.506;8.966;2023-02-23T01:58:28;28.97;;;21.13;;
23088;SDS011;11713;48.506;8.966;2023-02-23T02:00:57;26.00;;;19.33;;
23088;SDS011;11713;48.506;8.966;2023-02-23T02:03:32;27.77;;;19.77;;
23088;SDS011;11713;48.506;8.966;2023-02-23T02:06:03;28.30;;;20.47;;
23088;SDS011;11713;48.506;8.966;2023-02-23T02:08:33;25.13;;;19.80;;
23088;SDS011;11713;48.506;8.966;2023-02-23T02:11:07;27.17;;;19.67;;
23088;SDS011;11713;48.506;8.966;2023-02-23T02:13:57;27.67;;;19.73;;
23088;SDS011;11713;48.506;8.966;2023-02-23T02:16:41;25.33;;;19.33;;
23088;SDS011;11713;48.506;8.966;2023-02-23T02:41:52;28.63;;;19.83;;
23088;SDS011;11713;48.506;8.966;2023-02-23T02:44:29;27.33;;;19.77;;
23088;SDS011;11713;48.506;8.966;2023-02-23T02:47:15;28.17;;;19.93;;
23088;SDS011;11713;48.506;8.966;2023-02-23T02:52:18;26.47;;;19.33;;
23088;SDS011;11713;48.506;8.966;2023-02-23T02:54:51;28.40;;;19.87;;
23088;SDS011;11713;48.506;8.966;2023-02-23T02:57:21;27.70;;;20.40;;
23088;SDS011;11713;48.506;8.966;2023-02-23T02:59:50;27.63;;;20.77;;
23088;SDS011;11713;48.506;8.966;2023-02-23T03:02:36;25.63;;;19.40;;
23088;SDS011;11713;48.506;8.966;2023-02-23T03:05:27;27.50;;;19.90;;
23088;SDS011;11713;48.506;8.966;2023-02-23T03:08:36;26.97;;;19.20;;
23088;SDS011;11713;48.506;8.966;2023-02-23T03:11:35;28.50;;;20.77;;
23088;SDS011;11713;48.506;8.966;2023-02-23T03:14:34;28.70;;;19.80;;
23088;SDS011;11713;48.506;8.966;2023-02-23T03:17:38;24.03;;;18.10;;
23088;SDS011;11713;48.506;8.966;2023-02-23T03:23:17;23.03;;;17.73;;
23088;SDS011;11713;48.506;8.966;2023-02-23T03:32:24;22.87;;;16.10;;
23088;SDS011;11713;48.506;8.966;2023-02-23T03:41:32;22.73;;;16.53;;
23088;SDS011;11713;48.506;8.966;2023-02-23T03:44:31;23.97;;;15.73;;
23088;SDS011;11713;48.506;8.966;2023-02-23T03:47:21;24.20;;;17.30;;
23088;SDS011;11713;48.506;8.966;2023-02-23T03:50:14;25.80;;;17.87;;
23088;SDS011;11713;48.506;8.966;2023-02-23T03:53:07;23.67;;;15.80;;
23088;SDS011;11713;48.506;8.966;2023-02-23T03:55:55;24.40;;;17.27;;
23088;SDS011;11713;48.506;8.966;2023-02-23T03:58:49;24.37;;;16.73;;
23088;SDS011;11713;48.506;8.966;2023-02-23T04:01:38;25.00;;;17.60;;
23088;SDS011;11713;48.506;8.966;2023-02-23T04:04:23;22.07;;;16.73;;
23088;SDS011;11713;48.506;8.966;2023-02-23T04:07:09;23.60;;;16.23;;
23088;SDS011;11713;48.506;8.966;2023-02-23T04:09:57;21.63;;;16.90;;
23088;SDS011;11713;48.506;8.966;2023-02-23T04:12:53;20.80;;;16.27;;
23088;SDS011;11713;48.506;8.966;2023-02-23T04:15:51;24.23;;;17.60;;
23088;SDS011;11713;48.506;8.966;2023-02-23T04:18:22;26.67;;;18.63;;
23088;SDS011;11713;48.506;8.966;2023-02-23T04:20:51;24.17;;;17.60;;
23088;SDS011;11713;48.506;8.966;2023-02-23T04:23:17;26.33;;;17.67;;
23088;SDS011;11713;48.506;8.966;2023-02-23T04:25:43;24.37;;;18.37;;
23088;SDS011;11713;48.506;8.966;2023-02-23T04:28:09;27.10;;;18.47;;
23088;SDS011;11713;48.506;8.966;2023-02-23T04:30:35;27.37;;;19.63;;
23088;SDS011;11713;48.506;8.966;2023-02-23T04:33:01;28.93;;;20.13;;
23088;SDS011;11713;48.506;8.966;2023-02-23T04:35:27;30.30;;;20.30;;
23088;SDS011;11713;48.506;8.966;2023-02-23T04:37:55;26.57;;;20.27;;
23088;SDS011;11713;48.506;8.966;2023-02-23T04:40:22;28.40;;;20.43;;
23088;SDS011;11713;48.506;8.966;2023-02-23T04:42:49;28.07;;;20.37;;
23088;SDS011;11713;48.506;8.966;2023-02-23T04:45:15;28.80;;;20.73;;
23088;SDS011;11713;48.506;8.966;2023-02-23T04:47:41;29.37;;;19.80;;
23088;SDS011;11713;48.506;8.966;2023-02-23T04:50:07;27.43;;;20.30;;
23088;SDS011;11713;48.506;8.966;2023-02-23T04:52:33;33.60;;;22.47;;
23088;SDS011;11713;48.506;8.966;2023-02-23T04:54:59;29.37;;;21.40;;
23088;SDS011;11713;48.506;8.966;2023-02-23T04:57:25;28.93;;;20.67;;
23088;SDS011;11713;48.506;8.966;2023-02-23T04:59:51;30.57;;;21.93;;
23088;SDS011;11713;48.506;8.966;2023-02-23T05:02:17;29.83;;;20.93;;
23088;SDS011;11713;48.506;8.966;2023-02-23T05:04:43;31.60;;;21.67;;
23088;SDS011;11713;48.506;8.966;2023-02-23T05:07:09;30.60;;;21.67;;
23088;SDS011;11713;48.506;8.966;2023-02-23T05:09:35;29.73;;;21.20;;
23088;SDS011;11713;48.506;8.966;2023-02-23T05:12:00;29.90;;;21.33;;
23088;SDS011;11713;48.506;8.966;2023-02-23T05:14:26;30.47;;;20.43;;
23088;SDS011;11713;48.506;8.966;2023-02-23T05:16:52;26.80;;;19.60;;
23088;SDS011;11713;48.506;8.966;2023-02-23T05:19:18;27.10;;;20.33;;
23088;SDS011;11713;48.506;8.966;2023-02-23T05:21:44;29.63;;;20.60;;
23088;SDS011;11713;48.506;8.966;2023-02-23T05:24:10;26.57;;;20.07;;
23088;SDS011;11713;48.506;8.966;2023-02-23T05:26:35;30.07;;;20.83;;
23088;SDS011;11713;48.506;8.966;2023-02-23T05:29:01;29.90;;;20.50;;
23088;SDS011;11713;48.506;8.966;2023-02-23T05:31:27;28.23;;;20.27;;
23088;SDS011;11713;48.506;8.966;2023-02-23T05:33:53;27.63;;;20.80;;
23088;SDS011;11713;48.506;8.966;2023-02-23T05:36:19;29.07;;;19.80;;
23088;SDS011;11713;48.506;8.966;2023-02-23T05:38:46;27.73;;;20.10;;
23088;SDS011;11713;48.506;8.966;2023-02-23T05:41:14;28.50;;;19.63;;
23088;SDS011;11713;48.506;8.966;2023-02-23T05:43:41;28.03;;;20.47;;
23088;SDS011;11713;48.506;8.966;2023-02-23T05:46:08;28.43;;;19.63;;
23088;SDS011;11713;48.506;8.966;2023-02-23T05:48:35;26.23;;;19.93;;
23088;SDS011;11713;48.506;8.966;2023-02-23T05:51:04;28.10;;;20.40;;
23088;SDS011;11713;48.506;8.966;2023-02-23T05:53:32;28.53;;;20.37;;
23088;SDS011;11713;48.506;8.966;2023-02-23T05:55:58;25.40;;;19.47;;
23088;SDS011;11713;48.506;8.966;2023-02-23T05:58:26;28.13;;;19.67;;
23088;SDS011;11713;48.506;8.966;2023-02-23T06:00:52;28.87;;;18.90;;
23088;SDS011;11713;48.506;8.966;2023-02-23T06:03:18;27.83;;;20.03;;
23088;SDS011;11713;48.506;8.966;2023-02-23T06:05:53;27.70;;;19.53;;
23088;SDS011;11713;48.506;8.966;2023-02-23T06:08:21;28.23;;;18.63;;
23088;SDS011;11713;48.506;8.966;2023-02-23T06:10:47;25.07;;;19.00;;
23088;SDS011;11713;48.506;8.966;2023-02-23T06:13:13;23.77;;;17.83;;
23088;SDS011;11713;48.506;8.966;2023-02-23T06:15:40;26.37;;;19.60;;
23088;SDS011;11713;48.506;8.966;2023-02-23T06:18:06;24.53;;;18.63;;
23088;SDS011;11713;48.506;8.966;2023-02-23T06:20:33;24.57;;;18.40;;
23088;SDS011;11713;48.506;8.966;2023-02-23T06:22:59;29.67;;;19.60;;
23088;SDS011;11713;48.506;8.966;2023-02-23T06:25:25;24.40;;;18.83;;
23088;SDS011;11713;48.506;8.966;2023-02-23T06:27:51;23.93;;;18.43;;
23088;SDS011;11713;48.506;8.966;2023-02-23T06:30:17;28.80;;;18.50;;
23088;SDS011;11713;48.506;8.966;2023-02-23T06:32:43;26.20;;;19.80;;
23088;SDS011;11713;48.506;8.966;2023-02-23T06:35:13;27.20;;;19.87;;
23088;SDS011;11713;48.506;8.966;2023-02-23T06:37:39;27.17;;;19.70;;
23088;SDS011;11713;48.506;8.966;2023-02-23T06:40:05;28.73;;;20.30;;
23088;SDS011;11713;48.506;8.966;2023-02-23T06:42:31;32.00;;;21.27;;
23088;SDS011;11713;48.506;8.966;2023-02-23T06:44:58;32.03;;;20.17;;
23088;SDS011;11713;48.506;8.966;2023-02-23T06:47:24;30.27;;;21.27;;
23088;SDS011;11713;48.506;8.966;2023-02-23T06:49:50;28.60;;;21.20;;
23088;SDS011;11713;48.506;8.966;2023-02-23T06:52:15;28.50;;;20.80;;
23088;SDS011;11713;48.506;8.966;2023-02-23T06:54:41;27.87;;;20.67;;
23088;SDS011;11713;48.506;8.966;2023-02-23T06:57:07;30.67;;;21.23;;
23088;SDS011;11713;48.506;8.966;2023-02-23T06:59:34;28.83;;;20.10;;
23088;SDS011;11713;48.506;8.966;2023-02-23T07:02:01;26.30;;;19.67;;
23088;SDS011;11713;48.506;8.966;2023-02-23T07:04:33;31.10;;;20.60;;
23088;SDS011;11713;48.506;8.966;2023-02-23T07:07:01;27.13;;;19.17;;
23088;SDS011;11713;48.506;8.966;2023-02-23T07:09:30;27.03;;;19.50;;
23088;SDS011;11713;48.506;8.966;2023-02-23T07:11:59;30.47;;;20.57;;
23088;SDS011;11713;48.506;8.966;2023-02-23T07:14:25;27.07;;;19.83;;
23088;SDS011;11713;48.506;8.966;2023-02-23T07:16:57;29.47;;;21.27;;
23088;SDS011;11713;48.506;8.966;2023-02-23T07:19:27;29.50;;;21.67;;
23088;SDS011;11713;48.506;8.966;2023-02-23T07:21:54;30.10;;;23.47;;
23088;SDS011;11713;48.506;8.966;2023-02-23T07:24:21;29.67;;;22.57;;
23088;SDS011;11713;48.506;8.966;2023-02-23T07:26:47;29.70;;;22.90;;
23088;SDS011;11713;48.506;8.966;2023-02-23T07:29:14;28.03;;;20.63;;
23088;SDS011;11713;48.506;8.966;2023-02-23T07:31:43;26.73;;;20.27;;
23088;SDS011;11713;48.506;8.966;2023-02-23T07:34:11;26.07;;;19.33;;
23088;SDS011;11713;48.506;8.966;2023-02-23T07:36:36;26.00;;;18.53;;
23088;SDS011;11713;48.506;8.966;2023-02-23T07:39:03;24.20;;;17.50;;
23088;SDS011;11713;48.506;8.966;2023-02-23T07:41:29;25.00;;;18.07;;
23088;SDS011;11713;48.506;8.966;2023-02-23T07:43:55;29.57;;;21.40;;
23088;SDS011;11713;48.506;8.966;2023-02-23T07:46:22;26.17;;;19.60;;
23088;SDS011;11713;48.506;8.966;2023-02-23T07:48:48;24.73;;;18.43;;
23088;SDS011;11713;48.506;8.966;2023-02-23T07:51:14;24.87;;;18.97;;
23088;SDS011;11713;48.506;8.966;2023-02-23T07:53:41;28.23;;;20.23;;
23088;SDS011;11713;48.506;8.966;2023-02-23T07:56:08;24.43;;;18.20;;
23088;SDS011;11713;48.506;8.966;2023-02-23T07:58:36;27.10;;;19.47;;
23088;SDS011;11713;48.506;8.966;2023-02-23T08:01:02;26.03;;;18.83;;
23088;SDS011;11713;48.506;8.966;2023-02-23T08:03:28;29.40;;;20.80;;
23088;SDS011;11713;48.506;8.966;2023-02-23T08:05:56;27.10;;;20.10;;
23088;SDS011;11713;48.506;8.966;2023-02-23T08:08:21;27.03;;;20.17;;
23088;SDS011;11713;48.506;8.966;2023-02-23T08:10:48;30.30;;;20.57;;
23088;SDS011;11713;48.506;8.966;2023-02-23T08:13:14;27.57;;;19.97;;
23088;SDS011;11713;48.506;8.966;2023-02-23T08:15:41;27.30;;;19.57;;
23088;SDS011;11713;48.506;8.966;2023-02-23T08:18:07;27.20;;;19.77;;
23088;SDS011;11713;48.506;8.966;2023-02-23T08:20:33;24.70;;;19.00;;
23088;SDS011;11713;48.506;8.966;2023-02-23T08:22:59;24.40;;;18.17;;
23088;SDS011;11713;48.506;8.966;2023-02-23T08:25:25;24.23;;;17.10;;
23088;SDS011;11713;48.506;8.966;2023-02-23T08:27:51;22.30;;;16.77;;
23088;SDS011;11713;48.506;8.966;2023-02-23T08:30:22;25.03;;;16.97;;
23088;SDS011;11713;48.506;8.966;2023-02-23T08:32:48;21.77;;;16.87;;
23088;SDS011;11713;48.506;8.966;2023-02-23T08:35:15;18.53;;;14.50;;
23088;SDS011;11713;48.506;8.966;2023-02-23T08:37:43;21.50;;;16.57;;
23088;SDS011;11713;48.506;8.966;2023-02-23T08:40:10;22.10;;;16.07;;
23088;SDS011;11713;48.506;8.966;2023-02-23T08:42:40;20.03;;;15.23;;
23088;SDS011;11713;48.506;8.966;2023-02-23T08:45:06;20.70;;;14.73;;
23088;SDS011;11713;48.506;8.966;2023-02-23T08:47:32;17.67;;;13.90;;
23088;SDS011;11713;48.506;8.966;2023-02-23T08:50:00;19.00;;;14.00;;
23088;SDS011;11713;48.506;8.966;2023-02-23T08:52:26;21.20;;;13.97;;
23088;SDS011;11713;48.506;8.966;2023-02-23T08:54:51;20.03;;;13.87;;
23088;SDS011;11713;48.506;8.966;2023-02-23T08:57:17;17.77;;;13.10;;
23088;SDS011;11713;48.506;8.966;2023-02-23T08:59:43;16.50;;;12.03;;
23088;SDS011;11713;48.506;8.966;2023-02-23T09:02:10;20.93;;;12.23;;
23088;SDS011;11713;48.506;8.966;2023-02-23T09:04:37;18.60;;;12.83;;
23088;SDS011;11713;48.506;8.966;2023-02-23T09:07:06;18.47;;;12.77;;
23088;SDS011;11713;48.506;8.966;2023-02-23T09:09:33;17.83;;;12.63;;
23088;SDS011;11713;48.506;8.966;2023-02-23T09:11:59;16.97;;;12.53;;
23088;SDS011;11713;48.506;8.966;2023-02-23T09:14:25;18.47;;;13.10;;
23088;SDS011;11713;48.506;8.966;2023-02-23T09:16:52;20.57;;;13.47;;
23088;SDS011;11713;48.506;8.966;2023-02-23T09:19:18;23.50;;;13.77;;
23088;SDS011;11713;48.506;8.966;2023-02-23T09:21:44;20.00;;;13.53;;
23088;SDS011;11713;48.506;8.966;2023-02-23T09:24:10;18.00;;;13.07;;
23088;SDS011;11713;48.506;8.966;2023-02-23T09:26:35;19.00;;;13.03;;
23088;SDS011;11713;48.506;8.966;2023-02-23T09:29:04;16.70;;;12.90;;
23088;SDS011;11713;48.506;8.966;2023-02-23T09:31:31;18.60;;;13.00;;
23088;SDS011;11713;48.506;8.966;2023-02-23T09:33:57;19.33;;;11.93;;
23088;SDS011;11713;48.506;8.966;2023-02-23T09:36:26;15.23;;;10.93;;
23088;SDS011;11713;48.506;8.966;2023-02-23T09:38:54;15.07;;;11.93;;
23088;SDS011;11713;48.506;8.966;2023-02-23T09:48:58;14.37;;;10.80;;
23088;SDS011;11713;48.506;8.966;2023-02-23T09:51:26;14.67;;;10.27;;
23088;SDS011;11713;48.506;8.966;2023-02-23T09:53:54;13.20;;;10.10;;
23088;SDS011;11713;48.506;8.966;2023-02-23T09:56:32;13.77;;;10.00;;
23088;SDS011;11713;48.506;8.966;2023-02-23T09:59:03;15.20;;;10.13;;
23088;SDS011;11713;48.506;8.966;2023-02-23T10:15:42;12.13;;;9.83;;
23088;SDS011;11713;48.506;8.966;2023-02-23T10:26:42;13.07;;;9.13;;
23088;SDS011;11713;48.506;8.966;2023-02-23T10:29:19;10.30;;;8.67;;
23088;SDS011;11713;48.506;8.966;2023-02-23T10:31:48;13.87;;;9.30;;
23088;SDS011;11713;48.506;8.966;2023-02-23T10:34:20;12.10;;;8.93;;
23088;SDS011;11713;48.506;8.966;2023-02-23T10:36:54;11.73;;;9.03;;
23088;SDS011;11713;48.506;8.966;2023-02-23T10:39:30;12.90;;;9.20;;
23088;SDS011;11713;48.506;8.966;2023-02-23T10:42:03;13.40;;;9.10;;
23088;SDS011;11713;48.506;8.966;2023-02-23T10:44:31;10.90;;;7.80;;
23088;SDS011;11713;48.506;8.966;2023-02-23T10:47:02;11.93;;;8.97;;
23088;SDS011;11713;48.506;8.966;2023-02-23T10:49:40;12.53;;;8.50;;
23088;SDS011;11713;48.506;8.966;2023-02-23T10:52:13;11.83;;;8.30;;
23088;SDS011;11713;48.506;8.966;2023-02-23T10:57:22;12.97;;;7.70;;
23088;SDS011;11713;48.506;8.966;2023-02-23T10:59:59;15.40;;;8.63;;
23088;SDS011;11713;48.506;8.966;2023-02-23T11:02:34;15.63;;;7.57;;
23088;SDS011;11713;48.506;8.966;2023-02-23T11:05:00;14.30;;;7.93;;
23088;SDS011;11713;48.506;8.966;2023-02-23T11:07:28;9.57;;;7.40;;
23088;SDS011;11713;48.506;8.966;2023-02-23T11:09:56;11.80;;;7.20;;
23088;SDS011;11713;48.506;8.966;2023-02-23T11:14:54;14.03;;;9.10;;
23088;SDS011;11713;48.506;8.966;2023-02-23T11:17:28;10.53;;;7.23;;
23088;SDS011;11713;48.506;8.966;2023-02-23T11:19:59;11.17;;;7.53;;
23088;SDS011;11713;48.506;8.966;2023-02-23T11:22:33;12.57;;;7.30;;
23088;SDS011;11713;48.506;8.966;2023-02-23T11:25:02;12.93;;;7.20;;
23088;SDS011;11713;48.506;8.966;2023-02-23T11:27:38;10.27;;;7.70;;
23088;SDS011;11713;48.506;8.966;2023-02-23T11:30:11;11.70;;;7.00;;
23088;SDS011;11713;48.506;8.966;2023-02-23T11:32:39;9.97;;;7.30;;
23088;SDS011;11713;48.506;8.966;2023-02-23T11:37:49;10.00;;;6.83;;
23088;SDS011;11713;48.506;8.966;2023-02-23T11:40:22;10.17;;;6.63;;
23088;SDS011;11713;48.506;8.966;2023-02-23T11:48:24;8.87;;;6.10;;
23088;SDS011;11713;48.506;8.966;2023-02-23T11:50:59;11.70;;;6.40;;
23088;SDS011;11713;48.506;8.966;2023-02-23T11:55:52;18.23;;;8.23;;
23088;SDS011;11713;48.506;8.966;2023-02-23T11:58:22;14.43;;;7.03;;
23088;SDS011;11713;48.506;8.966;2023-02-23T12:01:04;10.20;;;5.70;;
23088;SDS011;11713;48.506;8.966;2023-02-23T12:03:37;9.43;;;5.80;;
23088;SDS011;11713;48.506;8.966;2023-02-23T12:06:09;16.17;;;6.63;;
23088;SDS011;11713;48.506;8.966;2023-02-23T12:08:38;9.63;;;5.40;;
23088;SDS011;11713;48.506;8.966;2023-02-23T12:11:13;7.57;;;5.47;;
23088;SDS011;11713;48.506;8.966;2023-02-23T12:13:46;10.67;;;5.67;;
23088;SDS011;11713;48.506;8.966;2023-02-23T12:16:33;9.73;;;5.33;;
23088;SDS011;11713;48.506;8.966;2023-02-23T12:22:05;7.23;;;4.40;;
23088;SDS011;11713;48.506;8.966;2023-02-23T12:27:43;7.50;;;4.37;;
23088;SDS011;11713;48.506;8.966;2023-02-23T12:39:30;9.37;;;5.30;;
23088;SDS011;11713;48.506;8.966;2023-02-23T12:47:39;9.73;;;4.90;;
23088;SDS011;11713;48.506;8.966;2023-02-23T12:50:41;9.63;;;5.40;;
23088;SDS011;11713;48.506;8.966;2023-02-23T12:53:22;7.40;;;5.10;;
23088;SDS011;11713;48.506;8.966;2023-02-23T13:01:28;10.10;;;5.20;;
23088;SDS011;11713;48.506;8.966;2023-02-23T13:06:32;11.57;;;5.33;;
23088;SDS011;11713;48.506;8.966;2023-02-23T13:20:47;10.73;;;6.17;;
23088;SDS011;11713;48.506;8.966;2023-02-23T13:23:40;9.57;;;5.43;;
23088;SDS011;11713;48.506;8.966;2023-02-23T13:28:51;11.30;;;6.13;;
23088;SDS011;11713;48.506;8.966;2023-02-23T13:31:34;11.53;;;6.20;;
23088;SDS011;11713;48.506;8.966;2023-02-23T13:34:02;10.63;;;5.93;;
23088;SDS011;11713;48.506;8.966;2023-02-23T13:36:31;10.03;;;6.10;;
23088;SDS011;11713;48.506;8.966;2023-02-23T13:47:04;13.83;;;8.07;;
23088;SDS011;11713;48.506;8.966;2023-02-23T13:54:51;9.50;;;6.70;;
23088;SDS011;11713;48.506;8.966;2023-02-23T13:57:21;11.73;;;6.33;;
23088;SDS011;11713;48.506;8.966;2023-02-23T13:59:48;11.10;;;6.10;;
23088;SDS011;11713;48.506;8.966;2023-02-23T14:05:05;11.07;;;6.20;;
23088;SDS011;11713;48.506;8.966;2023-02-23T14:16:12;15.87;;;9.03;;
23088;SDS011;11713;48.506;8.966;2023-02-23T14:19:03;17.53;;;9.10;;
23088;SDS011;11713;48.506;8.966;2023-02-23T14:24:42;11.13;;;5.90;;
23088;SDS011;11713;48.506;8.966;2023-02-23T14:42:30;8.90;;;5.00;;
23088;SDS011;11713;48.506;8.966;2023-02-23T14:44:57;10.00;;;5.53;;
23088;SDS011;11713;48.506;8.966;2023-02-23T14:47:54;9.33;;;5.00;;
23088;SDS011;11713;48.506;8.966;2023-02-23T14:50:25;9.70;;;4.87;;
23088;SDS011;11713;48.506;8.966;2023-02-23T14:52:54;12.57;;;5.10;;
23088;SDS011;11713;48.506;8.966;2023-02-23T14:55:23;11.70;;;5.53;;
23088;SDS011;11713;48.506;8.966;2023-02-23T14:57:52;8.90;;;5.00;;
23088;SDS011;11713;48.506;8.966;2023-02-23T15:00:23;10.50;;;5.20;;
23088;SDS011;11713;48.506;8.966;2023-02-23T15:02:57;8.43;;;4.93;;
23088;SDS011;11713;48.506;8.966;2023-02-23T15:05:35;8.60;;;5.23;;
23088;SDS011;11713;48.506;8.966;2023-02-23T15:08:12;9.53;;;5.27;;
23088;SDS011;11713;48.506;8.966;2023-02-23T15:10:47;9.37;;;5.43;;
23088;SDS011;11713;48.506;8.966;2023-02-23T15:13:28;10.83;;;5.50;;
23088;SDS011;11713;48.506;8.966;2023-02-23T15:16:00;12.03;;;5.17;;
23088;SDS011;11713;48.506;8.966;2023-02-23T15:21:57;11.47;;;5.57;;
23088;SDS011;11713;48.506;8.966;2023-02-23T15:24:27;10.47;;;5.30;;
23088;SDS011;11713;48.506;8.966;2023-02-23T15:27:17;7.50;;;4.83;;
23088;SDS011;11713;48.506;8.966;2023-02-23T15:29:48;11.07;;;5.90;;
23088;SDS011;11713;48.506;8.966;2023-02-23T15:32:19;8.03;;;5.37;;
23088;SDS011;11713;48.506;8.966;2023-02-23T15:34:50;9.40;;;5.30;;
23088;SDS011;11713;48.506;8.966;2023-02-23T15:51:05;11.47;;;6.10;;
23088;SDS011;11713;48.506;8.966;2023-02-23T15:53:41;19.80;;;9.20;;
23088;SDS011;11713;48.506;8.966;2023-02-23T15:58:46;17.73;;;7.63;;
23088;SDS011;11713;48.506;8.966;2023-02-23T16:01:17;10.43;;;6.57;;
23088;SDS011;11713;48.506;8.966;2023-02-23T16:03:56;9.10;;;6.70;;
23088;SDS011;11713;48.506;8.966;2023-02-23T16:06:31;8.20;;;5.87;;
23088;SDS011;11713;48.506;8.966;2023-02-23T16:08:59;12.23;;;7.13;;
23088;SDS011;11713;48.506;8.966;2023-02-23T16:11:44;9.90;;;6.50;;
23088;SDS011;11713;48.506;8.966;2023-02-23T16:14:14;15.80;;;10.40;;
23088;SDS011;11713;48.506;8.966;2023-02-23T16:16:42;12.67;;;8.07;;
23088;SDS011;11713;48.506;8.966;2023-02-23T16:19:11;12.67;;;8.27;;
23088;SDS011;11713;48.506;8.966;2023-02-23T16:21:39;9.50;;;7.37;;
23088;SDS011;11713;48.506;8.966;2023-02-23T16:24:25;10.60;;;6.93;;
23088;SDS011;11713;48.506;8.966;2023-02-23T16:27:43;10.20;;;5.57;;
23088;SDS011;11713;48.506;8.966;2023-02-23T16:32:40;8.90;;;6.17;;
23088;SDS011;11713;48.506;8.966;2023-02-23T16:35:13;11.63;;;6.77;;
23088;SDS011;11713;48.506;8.966;2023-02-23T16:37:56;13.07;;;5.90;;
23088;SDS011;11713;48.506;8.966;2023-02-23T16:40:25;8.10;;;5.90;;
23088;SDS011;11713;48.506;8.966;2023-02-23T16:42:51;10.23;;;5.70;;
23088;SDS011;11713;48.506;8.966;2023-02-23T16:45:23;9.63;;;6.17;;
23088;SDS011;11713;48.506;8.966;2023-02-23T16:47:51;12.90;;;6.30;;
23088;SDS011;11713;48.506;8.966;2023-02-23T16:50:18;9.17;;;5.60;;
23088;SDS011;11713;48.506;8.966;2023-02-23T16:52:49;6.60;;;4.83;;
23088;SDS011;11713;48.506;8.966;2023-02-23T16:55:19;8.80;;;5.20;;
23088;SDS011;11713;48.506;8.966;2023-02-23T16:58:01;14.00;;;5.90;;
23088;SDS011;11713;48.506;8.966;2023-02-23T17:00:32;11.17;;;6.73;;
23088;SDS011;11713;48.506;8.966;2023-02-23T17:02:58;9.97;;;6.57;;
23088;SDS011;11713;48.506;8.966;2023-02-23T17:05:24;11.23;;;7.57;;
23088;SDS011;11713;48.506;8.966;2023-02-23T17:07:52;11.73;;;7.43;;
23088;SDS011;11713;48.506;8.966;2023-02-23T17:10:23;15.40;;;8.47;;
23088;SDS011;11713;48.506;8.966;2023-02-23T17:13:34;12.73;;;7.83;;
23088;SDS011;11713;48.506;8.966;2023-02-23T17:15:47;15.17;;;8.37;;
23088;SDS011;11713;48.506;8.966;2023-02-23T17:18:40;13.27;;;9.03;;
23088;SDS011;11713;48.506;8.966;2023-02-23T17:21:12;11.43;;;8.13;;
23088;SDS011;11713;48.506;8.966;2023-02-23T17:23:50;14.07;;;9.80;;
23088;SDS011;11713;48.506;8.966;2023-02-23T17:26:21;16.20;;;10.20;;
23088;SDS011;11713;48.506;8.966;2023-02-23T17:29:11;16.10;;;9.83;;
23088;SDS011;11713;48.506;8.966;2023-02-23T17:31:42;13.30;;;10.43;;
23088;SDS011;11713;48.506;8.966;2023-02-23T17:34:34;17.37;;;10.43;;
23088;SDS011;11713;48.506;8.966;2023-02-23T17:37:06;13.40;;;9.40;;
23088;SDS011;11713;48.506;8.966;2023-02-23T17:39:32;13.13;;;9.33;;
23088;SDS011;11713;48.506;8.966;2023-02-23T17:42:01;19.83;;;11.17;;
23088;SDS011;11713;48.506;8.966;2023-02-23T17:44:27;16.73;;;10.73;;
23088;SDS011;11713;48.506;8.966;2023-02-23T17:46:54;15.30;;;10.73;;
23088;SDS011;11713;48.506;8.966;2023-02-23T17:49:20;16.73;;;10.80;;
23088;SDS011;11713;48.506;8.966;2023-02-23T17:51:46;16.40;;;10.30;;
23088;SDS011;11713;48.506;8.966;2023-02-23T17:54:11;17.03;;;10.60;;
23088;SDS011;11713;48.506;8.966;2023-02-23T17:56:38;13.70;;;10.23;;
23088;SDS011;11713;48.506;8.966;2023-02-23T17:59:04;14.93;;;9.80;;
23088;SDS011;11713;48.506;8.966;2023-02-23T18:01:29;15.53;;;9.63;;
23088;SDS011;11713;48.506;8.966;2023-02-23T18:03:55;13.57;;;9.50;;
23088;SDS011;11713;48.506;8.966;2023-02-23T18:06:22;14.30;;;9.40;;
23088;SDS011;11713;48.506;8.966;2023-02-23T18:08:48;15.73;;;9.20;;
23088;SDS011;11713;48.506;8.966;2023-02-23T18:11:14;15.87;;;10.03;;